Alton, Iowa
Current Conditions -  °F | °C
As of 2:55 AM on Wednesday 28 Jan 2015 (Local Time) from KORC Reporting Station
Clear Clear  
Wind Chill: -3°   Ceiling: Unl
Heat Index:   Visibility: 10mi
Dew Point: -1°   Wind: 8mph
Humidity: 87%   Direction: 140°SE
Pressure: 29.93"   Gusts: NA
Location:  42.99°N, 96.01°W
Report Text: KORC 280855Z AUTO 14007KT 10SM CLR 01/M01 A2993 RMK AO2
Loading
Personal Weather Stations






























Interactive Weather Map New forecast layout! Learn more

10-Day Weather Forecast

Advertisements
Track Severe Weather on mobile